Time;durP1;ratioP1;P1;durP2;ratioP2;P2;SDS_P1;SDS_P2;PMS_P1;PMS_P2;Temp;Humidity;BMP_temperature;BMP_pressure;BME280_temperature;BME280_humidity;BME280_pressure;Samples;Min_cycle;Max_cycle;Signal;HPM_P1;HPM_P2
2022/11/21 00:02:02;;;;;;;;;;;1.60;99.90;;;;;;4971996;28;198549;-72
2022/11/21 00:04:29;;;;;;;;;;;1.70;99.90;;;;;;5004004;28;19989;-72
2022/11/21 00:06:55;;;;;;;;;;;1.60;99.90;;;;;;4961615;28;206251;-72
2022/11/21 00:09:21;;;;;;;;;;;1.60;99.90;;;;;;5003979;28;19933;-72
2022/11/21 00:11:49;;;;;;;;;;;1.60;99.90;;;;;;4967649;28;123191;-71
2022/11/21 00:14:15;;;;;;;;;;;1.60;99.90;;;;;;5000365;28;19934;-72
2022/11/21 00:16:41;;;;;;;;;;;1.60;99.90;;;;;;4964886;28;213095;-72
2022/11/21 00:19:07;;;;;;;;;;;1.60;99.90;;;;;;4970454;28;20302;-72
2022/11/21 00:21:33;;;;;;;;;;;1.60;99.90;;;;;;4952886;28;209095;-72
2022/11/21 00:23:58;;;;;;;;;;;1.60;99.90;;;;;;5004554;28;19949;-72
2022/11/21 00:26:24;;;;;;;;;;;1.60;99.90;;;;;;4940638;28;208361;-72
2022/11/21 00:28:50;;;;;;;;;;;1.60;99.90;;;;;;4972380;28;20502;-72
2022/11/21 00:31:17;;;;;;;;;;;1.60;99.90;;;;;;4937265;28;220746;-72
2022/11/21 00:33:43;;;;;;;;;;;1.60;99.90;;;;;;4985786;28;19932;-72
2022/11/21 00:36:09;;;;;;;;;;;1.60;99.90;;;;;;4928794;28;207692;-72
2022/11/21 00:38:35;;;;;;;;;;;1.60;99.90;;;;;;4970069;28;19923;-72
2022/11/21 00:41:02;;;;;;;;;;;1.60;99.90;;;;;;4932044;28;206627;-72
2022/11/21 00:43:27;;;;;;;;;;;1.60;99.90;;;;;;4984748;28;19926;-72
2022/11/21 00:45:53;;;;;;;;;;;1.60;99.90;;;;;;4945032;28;223643;-72
2022/11/21 00:48:19;;;;;;;;;;;1.70;99.90;;;;;;4996303;28;20422;-72
2022/11/21 00:50:47;;;;;;;;;;;1.70;99.90;;;;;;4937192;28;216731;-72
2022/11/21 00:53:13;;;;;;;;;;;1.60;99.90;;;;;;5004195;28;19937;-72
2022/11/21 00:55:40;;;;;;;;;;;1.60;99.90;;;;;;4929624;28;210844;-72
2022/11/21 00:58:06;;;;;;;;;;;1.60;99.90;;;;;;4992251;28;19929;-72
2022/11/21 01:00:32;;;;;;;;;;;1.50;99.90;;;;;;4924556;28;209987;-72
2022/11/21 01:02:59;;;;;;;;;;;1.50;99.90;;;;;;4974387;28;19949;-72
2022/11/21 01:05:25;;;;;;;;;;;1.50;99.90;;;;;;4898072;28;211300;-72
2022/11/21 01:07:51;;;;;;;;;;;1.40;99.90;;;;;;4947349;28;20388;-72
2022/11/21 01:10:17;;;;;;;;;;;1.40;99.90;;;;;;4915344;28;221324;-72
2022/11/21 01:12:44;;;;;;;;;;;1.40;99.90;;;;;;5011031;28;19992;-72
2022/11/21 01:15:10;;;;;;;;;;;1.40;99.90;;;;;;4919500;28;213410;-71
2022/11/21 01:17:36;;;;;;;;;;;1.40;99.90;;;;;;4982059;28;19926;-72
2022/11/21 01:20:02;;;;;;;;;;;1.30;99.90;;;;;;4967854;28;207932;-71
2022/11/21 01:22:28;;;;;;;;;;;1.30;99.90;;;;;;4985991;28;20003;-72
2022/11/21 01:24:54;;;;;;;;;;;1.30;99.90;;;;;;4958045;28;210917;-71
2022/11/21 01:27:20;;;;;;;;;;;1.30;99.90;;;;;;4943117;28;117031;-72
2022/11/21 01:29:46;;;;;;;;;;;1.20;99.90;;;;;;4978640;28;19937;-72
2022/11/21 01:32:12;;;;;;;;;;;1.20;99.90;;;;;;4963920;28;209828;-72
2022/11/21 01:34:37;;;;;;;;;;;1.20;99.90;;;;;;4966736;28;19991;-72
2022/11/21 01:37:03;;;;;;;;;;;1.30;99.90;;;;;;4965037;28;156843;-72
2022/11/21 01:39:29;;;;;;;;;;;1.30;99.90;;;;;;5000911;28;20288;-72
2022/11/21 01:41:55;;;;;;;;;;;1.30;99.90;;;;;;4973948;28;203023;-72
2022/11/21 01:44:23;;;;;;;;;;;1.20;99.90;;;;;;4975316;28;19936;-73
2022/11/21 01:46:50;;;;;;;;;;;1.20;99.90;;;;;;4968820;28;192289;-73
2022/11/21 01:49:17;;;;;;;;;;;1.20;99.90;;;;;;4969141;28;19926;-72
2022/11/21 01:51:49;;;;;;;;;;;1.20;99.90;;;;;;4964438;28;159138;-72
2022/11/21 01:54:15;;;;;;;;;;;1.10;99.90;;;;;;5002674;28;19930;-72
2022/11/21 01:57:04;;;;;;;;;;;1.10;99.90;;;;;;4961912;28;214784;-71
2022/11/21 01:59:59;;;;;;;;;;;1.00;99.90;;;;;;4949427;28;20352;-72
2022/11/21 02:02:29;;;;;;;;;;;1.00;99.90;;;;;;4838768;29;208132;-71
2022/11/21 02:04:55;;;;;;;;;;;0.90;99.90;;;;;;4905194;29;24141;-70
2022/11/21 02:07:22;;;;;;;;;;;0.80;99.90;;;;;;4879698;29;169160;-72
2022/11/21 02:09:51;;;;;;;;;;;0.70;99.90;;;;;;4913588;29;19926;-72
2022/11/21 02:12:22;;;;;;;;;;;0.70;99.90;;;;;;4877569;29;199997;-72
2022/11/21 02:14:48;;;;;;;;;;;0.60;99.90;;;;;;4931661;29;19923;-73
2022/11/21 02:17:16;;;;;;;;;;;0.50;99.90;;;;;;4875760;28;162158;-73
2022/11/21 02:20:12;;;;;;;;;;;0.40;99.90;;;;;;4899204;29;19931;-73
2022/11/21 02:22:48;;;;;;;;;;;0.40;99.90;;;;;;4847628;29;206109;-71
2022/11/21 02:25:18;;;;;;;;;;;0.30;99.90;;;;;;4853272;29;146425;-71
2022/11/21 02:27:44;;;;;;;;;;;0.20;99.90;;;;;;4887478;29;19930;-72
2022/11/21 02:30:11;;;;;;;;;;;0.10;99.90;;;;;;4830231;29;208714;-71
2022/11/21 02:32:41;;;;;;;;;;;0.10;99.90;;;;;;4871684;29;20408;-72
2022/11/21 02:35:08;;;;;;;;;;;0.00;99.90;;;;;;4833804;29;206208;-71
2022/11/21 02:37:35;;;;;;;;;;;0.00;99.90;;;;;;4875897;29;19930;-72
2022/11/21 02:40:04;;;;;;;;;;;-0.10;99.90;;;;;;4907293;29;178883;-70
2022/11/21 02:42:38;;;;;;;;;;;-0.10;99.90;;;;;;4910636;29;20716;-71
2022/11/21 02:45:04;;;;;;;;;;;-0.20;99.90;;;;;;4895170;28;169550;-70
2022/11/21 02:47:31;;;;;;;;;;;-0.20;99.90;;;;;;4912316;29;20340;-71
2022/11/21 02:50:06;;;;;;;;;;;-0.30;99.90;;;;;;4901660;29;208921;-71
2022/11/21 02:52:32;;;;;;;;;;;-0.30;99.90;;;;;;4877175;29;19922;-72
2022/11/21 02:54:58;;;;;;;;;;;-0.40;99.90;;;;;;4914537;29;169635;-71
2022/11/21 02:57:24;;;;;;;;;;;-0.40;99.90;;;;;;4895964;29;265492;-71
2022/11/21 02:59:50;;;;;;;;;;;-0.40;99.90;;;;;;4977835;28;20190;-71
2022/11/21 03:02:16;;;;;;;;;;;-0.40;99.90;;;;;;4952189;28;192943;-72
2022/11/21 03:04:42;;;;;;;;;;;-0.50;99.90;;;;;;5001056;28;19930;-71
2022/11/21 03:07:08;;;;;;;;;;;-0.50;99.90;;;;;;4933349;28;162849;-71
2022/11/21 03:09:34;;;;;;;;;;;-0.50;99.90;;;;;;4973283;28;19926;-71
2022/11/21 03:12:03;;;;;;;;;;;-0.50;99.90;;;;;;4937068;28;207445;-70
2022/11/21 03:14:29;;;;;;;;;;;-0.60;99.90;;;;;;4951459;28;19926;-70
2022/11/21 03:16:55;;;;;;;;;;;-0.60;99.90;;;;;;4943718;28;153468;-70
2022/11/21 03:19:21;;;;;;;;;;;-0.60;99.90;;;;;;4964364;28;19937;-70
2022/11/21 03:21:47;;;;;;;;;;;-0.60;99.90;;;;;;4971260;28;217122;-70
2022/11/21 03:24:13;;;;;;;;;;;-0.70;99.90;;;;;;5000736;28;19947;-70
2022/11/21 03:26:39;;;;;;;;;;;-0.70;99.90;;;;;;4966795;28;188126;-70
2022/11/21 03:29:06;;;;;;;;;;;-0.70;99.90;;;;;;4968357;28;19926;-70
2022/11/21 03:31:32;;;;;;;;;;;-0.80;99.90;;;;;;4966845;28;179058;-69
2022/11/21 03:33:58;;;;;;;;;;;-0.80;99.90;;;;;;4988297;28;19997;-69
2022/11/21 03:36:23;;;;;;;;;;;-0.80;99.90;;;;;;4944998;28;197916;-70
2022/11/21 03:38:49;;;;;;;;;;;-0.80;99.90;;;;;;4969583;28;19926;-70
2022/11/21 03:41:30;;;;;;;;;;;-0.80;99.90;;;;;;4947346;28;206558;-70
2022/11/21 03:44:02;;;;;;;;;;;-0.90;99.90;;;;;;4981197;28;20302;-70
2022/11/21 03:46:29;;;;;;;;;;;-0.90;99.90;;;;;;4945054;28;178150;-70
2022/11/21 03:48:55;;;;;;;;;;;-0.90;99.90;;;;;;4981467;28;19930;-69
2022/11/21 03:51:21;;;;;;;;;;;-0.90;99.90;;;;;;4939676;28;216137;-69
2022/11/21 03:53:47;;;;;;;;;;;-0.90;99.90;;;;;;4974242;28;19930;-69
2022/11/21 03:56:13;;;;;;;;;;;-0.90;99.90;;;;;;4948156;28;206505;-69
2022/11/21 03:58:39;;;;;;;;;;;-1.00;99.90;;;;;;4984100;28;19933;-69
2022/11/21 04:01:05;;;;;;;;;;;-1.00;99.90;;;;;;4935708;28;207173;-69
2022/11/21 04:03:31;;;;;;;;;;;-1.00;99.90;;;;;;4983390;28;19952;-69
2022/11/21 04:05:57;;;;;;;;;;;-1.00;99.90;;;;;;4917142;28;224919;-70
2022/11/21 04:08:23;;;;;;;;;;;-1.00;99.90;;;;;;4967345;28;19926;-70
2022/11/21 04:10:50;;;;;;;;;;;-1.00;99.90;;;;;;4937119;28;204183;-69
2022/11/21 04:13:16;;;;;;;;;;;-1.00;99.90;;;;;;4996951;28;20480;-69
2022/11/21 04:15:42;;;;;;;;;;;-1.00;99.90;;;;;;4925650;28;206312;-69
2022/11/21 04:18:08;;;;;;;;;;;-1.00;99.90;;;;;;4980232;28;19930;-69
2022/11/21 04:20:34;;;;;;;;;;;-1.00;99.90;;;;;;4922467;28;206685;-69
2022/11/21 04:23:00;;;;;;;;;;;-1.10;99.90;;;;;;4990360;28;19937;-69
2022/11/21 04:25:26;;;;;;;;;;;-1.10;99.90;;;;;;4922736;28;209052;-69
2022/11/21 04:27:55;;;;;;;;;;;-1.10;99.90;;;;;;4972593;28;19922;-69
2022/11/21 04:30:21;;;;;;;;;;;-1.10;99.90;;;;;;4946252;28;132408;-69
2022/11/21 04:32:51;;;;;;;;;;;-1.20;99.90;;;;;;4974229;28;19929;-69
2022/11/21 04:35:17;;;;;;;;;;;-1.20;99.90;;;;;;4907102;28;216030;-70
2022/11/21 04:37:43;;;;;;;;;;;-1.20;99.90;;;;;;4996736;28;19922;-69
2022/11/21 04:40:10;;;;;;;;;;;-1.20;99.90;;;;;;4922419;28;216799;-69
2022/11/21 04:42:36;;;;;;;;;;;-1.20;99.90;;;;;;4983412;28;19925;-69
2022/11/21 04:45:02;;;;;;;;;;;-1.30;99.90;;;;;;4957271;28;206637;-68
2022/11/21 04:47:28;;;;;;;;;;;-1.30;99.90;;;;;;4986401;28;19929;-70
2022/11/21 04:49:54;;;;;;;;;;;-1.30;99.90;;;;;;4993222;28;206514;-69
2022/11/21 04:52:20;;;;;;;;;;;-1.40;99.90;;;;;;4976253;28;171242;-70
2022/11/21 04:54:46;;;;;;;;;;;-1.40;99.90;;;;;;4974551;28;19936;-70
2022/11/21 04:57:12;;;;;;;;;;;-1.50;99.90;;;;;;4964616;28;206892;-70
2022/11/21 04:59:39;;;;;;;;;;;-1.50;99.90;;;;;;4970898;28;19929;-70
2022/11/21 05:02:04;;;;;;;;;;;-1.50;99.90;;;;;;4943007;28;206433;-71
2022/11/21 05:04:30;;;;;;;;;;;-1.50;99.90;;;;;;5003707;28;19934;-70
2022/11/21 05:06:56;;;;;;;;;;;-1.50;99.90;;;;;;4944653;28;216840;-70
2022/11/21 05:09:22;;;;;;;;;;;-1.50;99.90;;;;;;4969141;28;19952;-70
2022/11/21 05:14:32;;;;;;;;;;;-1.40;99.90;;;;;;4983109;28;20392;-70
2022/11/21 05:16:58;;;;;;;;;;;-1.40;99.90;;;;;;4967657;28;168537;-70
2022/11/21 05:19:24;;;;;;;;;;;-1.40;99.90;;;;;;4982732;28;19926;-70
2022/11/21 05:21:50;;;;;;;;;;;-1.40;99.90;;;;;;4969885;28;205395;-70
2022/11/21 05:24:16;;;;;;;;;;;-1.30;99.90;;;;;;5000626;28;19932;-70
2022/11/21 05:26:42;;;;;;;;;;;-1.30;99.90;;;;;;4956743;28;211393;-70
2022/11/21 05:29:08;;;;;;;;;;;-1.30;99.90;;;;;;4956602;28;19933;-70
2022/11/21 05:31:34;;;;;;;;;;;-1.20;99.90;;;;;;4964366;28;166476;-71
2022/11/21 05:34:00;;;;;;;;;;;-1.20;99.90;;;;;;4972939;28;19930;-70
2022/11/21 05:36:26;;;;;;;;;;;-1.20;99.90;;;;;;4936998;28;189628;-70
2022/11/21 05:38:52;;;;;;;;;;;-1.10;99.90;;;;;;4956925;28;19973;-70
2022/11/21 05:41:17;;;;;;;;;;;-1.10;99.90;;;;;;4910219;28;225542;-70
2022/11/21 05:43:46;;;;;;;;;;;-1.10;99.90;;;;;;4944005;28;20025;-70
2022/11/21 05:46:13;;;;;;;;;;;-1.10;99.90;;;;;;4941067;28;149743;-70
2022/11/21 05:48:40;;;;;;;;;;;-1.10;99.90;;;;;;4962855;28;19933;-70
2022/11/21 05:51:06;;;;;;;;;;;-1.10;99.90;;;;;;4937947;28;198162;-70
2022/11/21 05:53:32;;;;;;;;;;;-1.10;99.90;;;;;;4951140;28;20017;-71
2022/11/21 05:56:05;;;;;;;;;;;-1.10;99.90;;;;;;4946871;28;177451;-70
2022/11/21 05:58:32;;;;;;;;;;;-1.10;99.90;;;;;;4984846;28;20414;-71
2022/11/21 06:00:58;;;;;;;;;;;-1.10;99.90;;;;;;4956109;28;206902;-70
2022/11/21 06:03:29;;;;;;;;;;;-1.10;99.90;;;;;;4973708;28;20447;-70
2022/11/21 06:06:14;;;;;;;;;;;-1.00;99.90;;;;;;4940613;28;179361;-70
2022/11/21 06:08:41;;;;;;;;;;;-1.00;99.90;;;;;;4991183;28;19973;-70
2022/11/21 06:11:08;;;;;;;;;;;-1.00;99.90;;;;;;4931764;28;184823;-71
2022/11/21 06:13:35;;;;;;;;;;;-1.00;99.90;;;;;;4987620;28;19926;-71
2022/11/21 06:16:01;;;;;;;;;;;-1.00;99.90;;;;;;4940548;28;207106;-69
2022/11/21 06:18:27;;;;;;;;;;;-1.00;99.90;;;;;;4982905;28;20387;-70
2022/11/21 06:20:53;;;;;;;;;;;-1.00;99.90;;;;;;4924490;28;208383;-71
2022/11/21 06:23:19;;;;;;;;;;;-1.00;99.90;;;;;;4967408;28;19930;-70
2022/11/21 06:25:46;;;;;;;;;;;-1.00;99.90;;;;;;4920920;28;210770;-70
2022/11/21 06:28:12;;;;;;;;;;;-1.00;99.90;;;;;;4995619;28;19926;-70
2022/11/21 06:30:38;;;;;;;;;;;-1.00;99.90;;;;;;4911139;28;228450;-70
2022/11/21 06:33:04;;;;;;;;;;;-1.10;99.90;;;;;;4986879;28;19936;-71
2022/11/21 06:35:31;;;;;;;;;;;-1.20;99.90;;;;;;4924085;28;217691;-70
2022/11/21 06:37:57;;;;;;;;;;;-1.20;99.90;;;;;;5001549;28;19926;-70
2022/11/21 06:40:25;;;;;;;;;;;-1.30;99.90;;;;;;4950486;28;207613;-70
2022/11/21 06:42:51;;;;;;;;;;;-1.30;99.90;;;;;;4953019;28;19937;-71
2022/11/21 06:45:17;;;;;;;;;;;-1.40;99.90;;;;;;4900533;28;206381;-70
2022/11/21 06:47:43;;;;;;;;;;;-1.40;99.90;;;;;;4975728;28;19933;-69
2022/11/21 06:50:09;;;;;;;;;;;-1.50;99.90;;;;;;4911323;28;207386;-70
2022/11/21 06:52:35;;;;;;;;;;;-1.50;99.90;;;;;;5017883;28;19968;-71
2022/11/21 06:55:01;;;;;;;;;;;-1.50;99.90;;;;;;4938617;28;206778;-71
2022/11/21 06:57:27;;;;;;;;;;;-1.60;99.90;;;;;;4975209;28;20156;-70
2022/11/21 06:59:53;;;;;;;;;;;-1.60;99.90;;;;;;4995240;28;19926;-70
2022/11/21 07:02:19;;;;;;;;;;;-1.70;99.90;;;;;;4947058;28;239293;-70
2022/11/21 07:04:45;;;;;;;;;;;-1.70;99.90;;;;;;4996414;28;19934;-70
2022/11/21 07:07:11;;;;;;;;;;;-1.70;99.90;;;;;;4948620;28;206984;-70
2022/11/21 07:09:37;;;;;;;;;;;-1.70;99.90;;;;;;4992022;28;19926;-70
2022/11/21 07:14:47;;;;;;;;;;;-1.60;99.90;;;;;;4972190;28;19927;-70
2022/11/21 07:17:13;;;;;;;;;;;-1.60;99.90;;;;;;4967052;28;179174;-70
2022/11/21 07:19:39;;;;;;;;;;;-1.50;99.90;;;;;;4994057;28;19977;-70
2022/11/21 07:22:06;;;;;;;;;;;-1.50;99.90;;;;;;4929977;28;208257;-69
2022/11/21 07:24:32;;;;;;;;;;;-1.50;99.90;;;;;;4975466;28;19926;-70
2022/11/21 07:26:58;;;;;;;;;;;-1.50;99.90;;;;;;4949424;28;208447;-70
2022/11/21 07:29:24;;;;;;;;;;;-1.50;99.90;;;;;;4971920;28;19926;-71
2022/11/21 07:31:50;;;;;;;;;;;-1.50;99.90;;;;;;4944959;28;183022;-71
2022/11/21 07:34:16;;;;;;;;;;;-1.60;99.90;;;;;;4972393;28;19927;-71
2022/11/21 07:36:42;;;;;;;;;;;-1.60;99.90;;;;;;4957146;28;134606;-70
2022/11/21 07:39:08;;;;;;;;;;;-1.60;99.90;;;;;;4985734;28;19926;-71
2022/11/21 07:41:34;;;;;;;;;;;-1.60;99.90;;;;;;4954649;28;209545;-70
2022/11/21 07:44:00;;;;;;;;;;;-1.60;99.90;;;;;;4977087;28;19978;-70
2022/11/21 07:46:25;;;;;;;;;;;-1.60;99.90;;;;;;4957410;28;187195;-70
2022/11/21 07:48:51;;;;;;;;;;;-1.60;99.90;;;;;;4976571;28;19929;-70
2022/11/21 07:51:17;;;;;;;;;;;-1.60;99.90;;;;;;4939322;28;207296;-70
2022/11/21 07:53:43;;;;;;;;;;;-1.60;99.90;;;;;;4970909;28;20175;-71
2022/11/21 07:56:09;;;;;;;;;;;-1.50;99.90;;;;;;4952502;28;206765;-71
2022/11/21 07:58:35;;;;;;;;;;;-1.50;99.90;;;;;;4989696;28;19926;-70
2022/11/21 08:01:03;;;;;;;;;;;-1.50;99.90;;;;;;4923199;28;210475;-69
2022/11/21 08:03:29;;;;;;;;;;;-1.50;99.90;;;;;;4975371;28;20403;-71
2022/11/21 08:05:55;;;;;;;;;;;-1.50;99.90;;;;;;4942793;28;149522;-70
2022/11/21 08:08:21;;;;;;;;;;;-1.40;99.90;;;;;;4971525;28;19970;-71
2022/11/21 08:10:47;;;;;;;;;;;-1.40;99.90;;;;;;4931661;28;216341;-69
2022/11/21 08:13:13;;;;;;;;;;;-1.30;99.90;;;;;;4979329;28;19928;-70
2022/11/21 08:15:39;;;;;;;;;;;-1.30;99.90;;;;;;4934848;28;207465;-70
2022/11/21 08:18:13;;;;;;;;;;;-1.30;99.90;;;;;;4991904;28;19933;-70
2022/11/21 08:20:39;;;;;;;;;;;-1.20;99.90;;;;;;4932513;28;206616;-70
2022/11/21 08:23:05;;;;;;;;;;;-1.20;99.90;;;;;;4987175;28;20311;-70
2022/11/21 08:25:31;;;;;;;;;;;-1.10;99.90;;;;;;4948766;28;205120;-71
2022/11/21 08:27:58;;;;;;;;;;;-1.10;99.90;;;;;;4980494;28;19926;-70
2022/11/21 08:30:24;;;;;;;;;;;-0.90;99.90;;;;;;4918995;28;217168;-69
2022/11/21 08:32:50;;;;;;;;;;;-0.90;99.90;;;;;;4985621;28;20004;-70
2022/11/21 08:35:16;;;;;;;;;;;-0.90;99.90;;;;;;4899141;28;208748;-70
2022/11/21 08:37:42;;;;;;;;;;;-0.80;99.90;;;;;;4949893;28;19918;-71
2022/11/21 08:40:08;;;;;;;;;;;-0.60;99.90;;;;;;4905320;28;207895;-71
2022/11/21 08:42:34;;;;;;;;;;;-0.50;99.90;;;;;;4987304;28;19926;-71
2022/11/21 08:45:00;;;;;;;;;;;-0.30;99.90;;;;;;4946869;28;208323;-70
2022/11/21 08:47:26;;;;;;;;;;;-0.20;99.90;;;;;;4971525;28;19928;-70
2022/11/21 08:49:52;;;;;;;;;;;0.00;99.90;;;;;;4965509;28;21209;-70
2022/11/21 08:52:18;;;;;;;;;;;0.20;99.90;;;;;;4924485;28;206983;-70
2022/11/21 08:54:44;;;;;;;;;;;0.30;99.90;;;;;;4967414;28;20610;-70
2022/11/21 08:57:11;;;;;;;;;;;0.40;99.90;;;;;;4944835;28;207002;-70
2022/11/21 08:59:37;;;;;;;;;;;0.50;99.90;;;;;;4997522;28;19953;-69
2022/11/21 09:02:02;;;;;;;;;;;0.50;99.90;;;;;;4950148;28;207680;-69
2022/11/21 09:04:28;;;;;;;;;;;0.60;99.90;;;;;;4999010;28;19938;-72
2022/11/21 09:06:54;;;;;;;;;;;0.60;99.90;;;;;;4928294;28;136194;-70
2022/11/21 09:09:20;;;;;;;;;;;0.70;99.90;;;;;;4967171;28;20009;-70
2022/11/21 09:11:46;;;;;;;;;;;0.70;99.90;;;;;;4962119;28;207165;-70
2022/11/21 09:19:41;;;;;;;;;;;0.80;99.90;;;;;;4969225;28;19942;-71
2022/11/21 09:22:07;;;;;;;;;;;0.80;99.90;;;;;;4953710;28;140416;-72
2022/11/21 09:24:33;;;;;;;;;;;0.80;99.90;;;;;;4995031;28;19937;-71
2022/11/21 09:26:59;;;;;;;;;;;0.90;99.90;;;;;;4956801;28;127943;-71
2022/11/21 09:29:25;;;;;;;;;;;0.90;99.90;;;;;;4994107;28;19926;-71
2022/11/21 09:31:51;;;;;;;;;;;1.00;99.90;;;;;;4970108;28;206555;-70
2022/11/21 09:34:18;;;;;;;;;;;1.00;99.90;;;;;;4972593;28;19921;-70
2022/11/21 09:36:44;;;;;;;;;;;1.00;99.90;;;;;;4960871;28;212513;-71
2022/11/21 09:39:10;;;;;;;;;;;1.00;99.90;;;;;;4983660;28;19926;-71
2022/11/21 09:41:53;;;;;;;;;;;1.10;99.90;;;;;;4943912;28;205171;-71
2022/11/21 09:44:34;;;;;;;;;;;1.10;99.90;;;;;;4968955;28;19937;-69
2022/11/21 09:47:21;;;;;;;;;;;1.10;99.90;;;;;;4974818;28;46960;-70
2022/11/21 09:49:50;;;;;;;;;;;1.20;99.90;;;;;;4981767;28;19930;-70
2022/11/21 09:52:19;;;;;;;;;;;1.20;99.90;;;;;;4955982;28;207048;-70
2022/11/21 09:54:47;;;;;;;;;;;1.30;99.90;;;;;;4995432;28;20615;-71
2022/11/21 09:57:15;;;;;;;;;;;1.30;99.90;;;;;;4953091;28;208250;-71
2022/11/21 09:59:42;;;;;;;;;;;1.30;99.90;;;;;;4966878;28;19922;-71
2022/11/21 10:02:15;;;;;;;;;;;1.40;99.90;;;;;;4952313;28;209201;-71
2022/11/21 10:04:41;;;;;;;;;;;1.40;99.90;;;;;;4984276;28;19933;-71
2022/11/21 10:07:12;;;;;;;;;;;1.50;99.90;;;;;;4940002;28;224422;-71
2022/11/21 10:09:56;;;;;;;;;;;1.50;99.90;;;;;;4981283;28;19926;-69
2022/11/21 10:12:36;;;;;;;;;;;1.60;99.90;;;;;;4958382;28;100121;-71
2022/11/21 10:15:14;;;;;;;;;;;1.70;99.90;;;;;;4986678;28;208285;-71
2022/11/21 10:17:49;;;;;;;;;;;1.80;99.90;;;;;;5009133;28;19951;-71
2022/11/21 10:20:33;;;;;;;;;;;1.80;99.90;;;;;;4935125;28;205834;-71
2022/11/21 10:23:18;;;;;;;;;;;1.90;99.90;;;;;;5008432;28;19922;-70
2022/11/21 10:25:49;;;;;;;;;;;1.90;99.90;;;;;;4947273;28;205870;-71
2022/11/21 10:28:15;;;;;;;;;;;2.00;99.90;;;;;;5006912;28;20382;-70
2022/11/21 10:30:43;;;;;;;;;;;2.00;99.90;;;;;;4939272;28;206811;-71
2022/11/21 10:33:14;;;;;;;;;;;2.10;99.90;;;;;;5005329;28;19933;-72
2022/11/21 10:35:40;;;;;;;;;;;2.20;99.90;;;;;;4944566;28;212458;-71
2022/11/21 10:38:25;;;;;;;;;;;2.30;99.90;;;;;;5003650;28;19988;-72
2022/11/21 10:41:14;;;;;;;;;;;2.40;99.90;;;;;;4950531;28;135988;-73
2022/11/21 10:46:37;;;;;;;;;;;2.70;99.90;;;;;;4992718;28;149632;-70
2022/11/21 10:49:03;;;;;;;;;;;2.80;99.90;;;;;;5008392;28;20670;-72
2022/11/21 10:51:41;;;;;;;;;;;2.90;99.90;;;;;;4970218;28;167711;-73
2022/11/21 10:56:53;;;;;;;;;;;3.20;99.90;;;;;;4982947;28;46721;-73
2022/11/21 10:59:22;;;;;;;;;;;3.40;99.90;;;;;;5003454;28;20303;-73
2022/11/21 11:01:53;;;;;;;;;;;3.50;99.90;;;;;;4972494;28;150349;-72
2022/11/21 11:04:20;;;;;;;;;;;3.50;99.90;;;;;;4971327;28;19922;-73
2022/11/21 11:06:46;;;;;;;;;;;3.40;99.90;;;;;;4945087;28;214690;-73
2022/11/21 11:09:25;;;;;;;;;;;3.50;99.90;;;;;;4958841;28;19922;-73
2022/11/21 11:11:51;;;;;;;;;;;3.60;99.90;;;;;;4960332;28;202392;-73
2022/11/21 11:14:26;;;;;;;;;;;3.70;99.90;;;;;;5002036;28;20012;-73
2022/11/21 11:16:52;;;;;;;;;;;3.70;99.90;;;;;;4976607;28;206548;-73
2022/11/21 11:19:24;;;;;;;;;;;3.80;99.90;;;;;;4972196;28;19930;-73
2022/11/21 11:21:50;;;;;;;;;;;3.80;99.90;;;;;;4957095;28;137416;-73
2022/11/21 11:24:16;;;;;;;;;;;3.90;99.90;;;;;;4954850;28;19949;-73
2022/11/21 11:26:50;;;;;;;;;;;3.90;99.90;;;;;;4932511;28;137673;-73
2022/11/21 11:29:28;;;;;;;;;;;4.00;99.90;;;;;;4982712;28;19926;-72
2022/11/21 11:31:57;;;;;;;;;;;4.10;99.90;;;;;;4972101;28;149746;-72
2022/11/21 11:34:26;;;;;;;;;;;4.20;99.90;;;;;;4973365;28;20330;-72
2022/11/21 11:37:11;;;;;;;;;;;4.20;99.90;;;;;;4931120;28;207702;-72
2022/11/21 11:39:57;;;;;;;;;;;4.20;99.90;;;;;;4968602;28;19926;-72
2022/11/21 11:47:57;;;;;;;;;;;4.30;99.90;;;;;;4972565;28;19926;-72
2022/11/21 11:50:38;;;;;;;;;;;4.30;99.90;;;;;;4923207;28;202527;-73
2022/11/21 11:53:04;;;;;;;;;;;4.20;99.90;;;;;;4970164;28;19930;-73
2022/11/21 11:55:31;;;;;;;;;;;4.30;99.90;;;;;;4944326;28;216216;-73
2022/11/21 11:57:58;;;;;;;;;;;4.20;99.90;;;;;;4986450;28;19926;-72
2022/11/21 12:00:29;;;;;;;;;;;4.10;99.90;;;;;;4915693;28;202710;-72
2022/11/21 12:02:55;;;;;;;;;;;4.10;99.90;;;;;;4963872;28;19923;-73
2022/11/21 12:05:24;;;;;;;;;;;4.10;99.90;;;;;;4913955;28;218183;-73
2022/11/21 12:07:56;;;;;;;;;;;4.10;99.90;;;;;;5004174;28;19922;-73
2022/11/21 12:10:25;;;;;;;;;;;4.00;99.90;;;;;;4924503;28;212742;-72
2022/11/21 12:12:53;;;;;;;;;;;4.00;99.90;;;;;;4962665;28;20412;-73
2022/11/21 12:18:12;;;;;;;;;;;4.00;99.90;;;;;;5003563;28;19926;-73
2022/11/21 12:20:38;;;;;;;;;;;4.00;99.90;;;;;;4964156;28;164595;-73
2022/11/21 12:23:06;;;;;;;;;;;4.00;99.90;;;;;;4997250;28;19929;-73
2022/11/21 12:25:35;;;;;;;;;;;4.00;99.90;;;;;;4928929;28;207210;-74
2022/11/21 12:28:05;;;;;;;;;;;3.90;99.90;;;;;;4962359;28;20310;-73
2022/11/21 12:30:48;;;;;;;;;;;3.90;99.90;;;;;;4937703;28;196821;-73
2022/11/21 12:33:18;;;;;;;;;;;3.90;99.90;;;;;;5005179;28;19949;-73
2022/11/21 12:35:50;;;;;;;;;;;3.90;99.90;;;;;;4952359;28;153194;-73
2022/11/21 12:38:31;;;;;;;;;;;3.90;99.90;;;;;;4961683;28;19930;-73
2022/11/21 12:41:00;;;;;;;;;;;3.90;99.90;;;;;;4930596;28;206281;-73
2022/11/21 12:43:31;;;;;;;;;;;3.90;99.90;;;;;;4999294;28;19926;-73
2022/11/21 12:46:11;;;;;;;;;;;4.00;99.90;;;;;;4929429;28;216936;-74
2022/11/21 12:54:32;;;;;;;;;;;4.00;99.90;;;;;;5009943;28;20388;-73
2022/11/21 12:57:07;;;;;;;;;;;4.00;99.90;;;;;;4960993;28;176627;-74
2022/11/21 12:59:40;;;;;;;;;;;4.00;99.90;;;;;;4979507;28;20000;-73
2022/11/21 13:02:21;;;;;;;;;;;4.10;99.90;;;;;;4983839;28;101678;-73
2022/11/21 13:04:48;;;;;;;;;;;4.10;99.90;;;;;;5004888;28;19934;-73
2022/11/21 13:07:14;;;;;;;;;;;4.10;99.90;;;;;;4968222;28;97371;-74
2022/11/21 13:09:42;;;;;;;;;;;4.10;99.90;;;;;;4977086;28;19926;-74
2022/11/21 13:12:11;;;;;;;;;;;4.20;99.90;;;;;;4961626;28;48843;-73
2022/11/21 13:14:40;;;;;;;;;;;4.20;99.90;;;;;;4970221;28;19933;-73
2022/11/21 13:17:15;;;;;;;;;;;4.20;99.90;;;;;;4971601;28;213593;-72
2022/11/21 13:19:50;;;;;;;;;;;4.20;99.90;;;;;;4971993;28;19922;-73
2022/11/21 13:22:34;;;;;;;;;;;4.30;99.90;;;;;;4948593;28;206052;-73
2022/11/21 13:25:08;;;;;;;;;;;4.30;99.90;;;;;;4945121;28;208988;-72
2022/11/21 13:27:35;;;;;;;;;;;4.30;99.90;;;;;;4977051;28;19946;-73
2022/11/21 13:30:07;;;;;;;;;;;4.30;99.90;;;;;;4969939;28;215148;-72
2022/11/21 13:32:40;;;;;;;;;;;4.20;99.90;;;;;;4988815;28;20364;-73
2022/11/21 13:35:19;;;;;;;;;;;4.20;99.90;;;;;;4924264;28;206982;-72
2022/11/21 13:37:47;;;;;;;;;;;4.30;99.90;;;;;;4993135;28;19929;-73
2022/11/21 13:40:26;;;;;;;;;;;4.30;99.90;;;;;;4923858;28;206378;-72
2022/11/21 13:43:12;;;;;;;;;;;4.40;99.90;;;;;;4989931;28;19922;-73
2022/11/21 13:45:47;;;;;;;;;;;4.40;99.90;;;;;;4937048;28;209432;-73
2022/11/21 13:48:16;;;;;;;;;;;4.40;99.90;;;;;;4994545;28;19941;-72
2022/11/21 13:51:02;;;;;;;;;;;4.40;99.90;;;;;;4942042;28;215149;-73
2022/11/21 13:54:04;;;;;;;;;;;4.40;99.90;;;;;;4882988;29;19931;-73
2022/11/21 13:56:41;;;;;;;;;;;4.40;99.90;;;;;;4820093;29;138850;-73
2022/11/21 13:59:11;;;;;;;;;;;4.40;99.90;;;;;;4847242;29;19932;-73
2022/11/21 14:01:42;;;;;;;;;;;4.40;99.90;;;;;;4842678;29;153958;-72
2022/11/21 14:04:11;;;;;;;;;;;4.40;99.90;;;;;;4846209;29;19933;-72
2022/11/21 14:06:41;;;;;;;;;;;4.40;99.90;;;;;;4803742;29;197954;-72
2022/11/21 14:09:46;;;;;;;;;;;4.40;99.90;;;;;;4836625;29;19928;-72
2022/11/21 14:12:19;;;;;;;;;;;4.40;99.90;;;;;;4784493;29;41785;-73
2022/11/21 14:14:52;;;;;;;;;;;4.30;99.90;;;;;;4815629;29;19929;-74
2022/11/21 14:17:47;;;;;;;;;;;4.30;99.90;;;;;;4779762;29;176313;-74
2022/11/21 14:20:15;;;;;;;;;;;4.40;99.90;;;;;;4776946;29;143424;-73
2022/11/21 14:22:45;;;;;;;;;;;4.40;99.90;;;;;;4832834;29;19929;-74
2022/11/21 14:25:18;;;;;;;;;;;4.40;99.90;;;;;;4789620;29;207897;-73
2022/11/21 14:27:48;;;;;;;;;;;4.40;99.90;;;;;;4832715;29;20476;-73
2022/11/21 14:30:26;;;;;;;;;;;4.40;99.90;;;;;;4823928;28;206289;-73
2022/11/21 14:32:52;;;;;;;;;;;4.40;99.90;;;;;;4946632;28;19927;-73
2022/11/21 14:35:20;;;;;;;;;;;4.40;99.90;;;;;;4888611;28;206273;-74
2022/11/21 14:37:46;;;;;;;;;;;4.40;99.90;;;;;;4939183;28;19938;-74
2022/11/21 14:40:18;;;;;;;;;;;4.40;99.90;;;;;;4884794;28;150438;-74
2022/11/21 14:42:44;;;;;;;;;;;4.40;99.90;;;;;;4915987;29;19938;-74
2022/11/21 14:45:16;;;;;;;;;;;4.40;99.90;;;;;;4871587;28;141257;-74
2022/11/21 14:47:46;;;;;;;;;;;4.40;99.90;;;;;;4938867;28;21517;-74
2022/11/21 14:50:21;;;;;;;;;;;4.40;99.90;;;;;;4864973;28;113226;-73
2022/11/21 14:52:47;;;;;;;;;;;4.40;99.90;;;;;;4907958;29;19930;-74
2022/11/21 14:55:21;;;;;;;;;;;4.40;99.90;;;;;;4884709;28;208394;-73
2022/11/21 14:57:47;;;;;;;;;;;4.40;99.90;;;;;;4970843;28;20679;-74
2022/11/21 15:00:15;;;;;;;;;;;4.30;99.90;;;;;;4929880;28;210567;-74